createdAt,value
2018-03-12T04:00:16.506Z,9.57
2018-03-12T04:02:44.791Z,8.90
2018-03-12T04:05:13.141Z,10.50
2018-03-12T04:07:42.207Z,11.07
2018-03-12T04:10:10.539Z,12.80
2018-03-12T04:12:38.840Z,12.37
2018-03-12T04:15:07.172Z,10.20
2018-03-12T04:17:35.910Z,11.07
2018-03-12T04:20:04.239Z,10.30
2018-03-12T04:22:32.560Z,9.43
2018-03-12T04:25:00.885Z,11.03
2018-03-12T04:27:29.947Z,10.83
2018-03-12T04:29:58.286Z,8.70
2018-03-12T04:32:26.574Z,10.90
2018-03-12T04:34:54.899Z,9.73
2018-03-12T04:37:23.200Z,8.87
2018-03-12T04:39:51.523Z,8.13
2018-03-12T04:42:19.813Z,8.37
2018-03-12T04:44:48.125Z,8.37
2018-03-12T04:47:17.192Z,8.27
2018-03-12T04:49:45.498Z,8.60
2018-03-12T04:52:13.805Z,9.20
2018-03-12T04:54:42.123Z,9.37
2018-03-12T04:57:10.411Z,10.27
2018-03-12T04:59:38.737Z,13.70
2018-03-12T05:02:07.801Z,12.70
2018-03-12T05:04:36.884Z,11.17
2018-03-12T05:07:05.955Z,11.50
2018-03-12T05:09:34.266Z,8.13
2018-03-12T05:12:03.321Z,9.07
2018-03-12T05:14:31.634Z,11.10
2018-03-12T05:17:00.690Z,10.33
2018-03-12T05:19:29.012Z,10.77
2018-03-12T05:21:58.075Z,11.20
2018-03-12T05:24:26.390Z,9.80
2018-03-12T05:26:55.448Z,10.70
2018-03-12T05:29:23.768Z,11.17
2018-03-12T05:31:52.058Z,13.80
2018-03-12T05:34:20.374Z,13.03
2018-03-12T05:36:48.687Z,13.70
2018-03-12T05:39:17.777Z,11.73
2018-03-12T05:41:46.843Z,14.63
2018-03-12T05:44:15.162Z,12.83
2018-03-12T05:46:44.226Z,11.80
2018-03-12T05:49:12.539Z,12.13
2018-03-12T05:51:40.835Z,11.20
2018-03-12T05:54:09.167Z,11.30
2018-03-12T05:56:38.245Z,18.20
2018-03-12T05:59:06.542Z,18.93
2018-03-12T06:01:34.858Z,14.70
2018-03-12T06:04:03.158Z,17.80
2018-03-12T06:06:31.495Z,18.10
2018-03-12T06:08:59.790Z,20.03
2018-03-12T06:11:28.112Z,13.73
2018-03-12T06:13:56.412Z,15.40
2018-03-12T06:16:25.490Z,13.43
2018-03-12T06:18:53.779Z,20.10
2018-03-12T06:21:22.100Z,17.73
2018-03-12T06:23:50.399Z,19.00
2018-03-12T06:26:18.714Z,19.00
2018-03-12T06:28:47.782Z,17.23
2018-03-12T06:31:16.090Z,18.40
2018-03-12T06:33:45.159Z,22.87
2018-03-12T06:36:13.558Z,18.87
2018-03-12T06:38:42.632Z,23.37
2018-03-12T06:41:10.940Z,22.40
2018-03-12T06:43:39.998Z,20.03
2018-03-12T06:46:08.314Z,25.50
2018-03-12T06:48:36.628Z,24.13
2018-03-12T06:51:04.964Z,25.27
2018-03-12T06:53:34.038Z,23.20
2018-03-12T06:56:02.340Z,24.53
2018-03-12T06:58:31.422Z,22.20
2018-03-12T07:00:59.717Z,21.87
2018-03-12T07:03:28.799Z,21.37
2018-03-12T07:05:57.875Z,22.00
2018-03-12T07:08:26.200Z,22.67
2018-03-12T07:10:54.493Z,21.20
2018-03-12T07:13:22.814Z,18.50
2018-03-12T07:15:51.108Z,16.97
2018-03-12T07:18:20.195Z,15.10
2018-03-12T07:20:48.503Z,16.20
2018-03-12T07:23:16.826Z,14.47
2018-03-12T07:25:45.115Z,14.80
2018-03-12T07:28:13.431Z,14.93
2018-03-12T07:30:41.736Z,13.07
2018-03-12T07:33:10.055Z,12.50
2018-03-12T07:35:38.412Z,14.80
2018-03-12T07:38:06.698Z,14.30
2018-03-12T07:40:35.000Z,14.90
2018-03-12T07:43:04.053Z,12.67
2018-03-12T07:45:32.370Z,13.87
2018-03-12T07:48:01.429Z,12.20
2018-03-12T07:50:29.742Z,12.93
2018-03-12T07:52:58.817Z,12.77
2018-03-12T07:55:27.130Z,11.40
2018-03-12T07:57:56.190Z,10.50
2018-03-12T08:00:24.502Z,10.10
2018-03-12T08:02:53.558Z,8.40
2018-03-12T08:05:21.871Z,9.60
2018-03-12T08:07:50.933Z,9.00
2018-03-12T08:10:19.251Z,10.70
2018-03-12T08:12:47.552Z,11.00
2018-03-12T08:15:15.858Z,8.43
2018-03-12T08:17:44.160Z,8.70
2018-03-12T08:20:12.474Z,8.00
2018-03-12T08:22:40.780Z,8.70
2018-03-12T08:25:09.095Z,9.90
2018-03-12T08:27:37.395Z,8.23
2018-03-12T08:30:06.468Z,9.50
2018-03-12T08:32:34.758Z,9.27
2018-03-12T08:35:03.844Z,9.93
2018-03-12T08:37:32.890Z,8.30
2018-03-12T08:40:01.220Z,8.27
2018-03-12T08:42:30.287Z,8.93
2018-03-12T08:44:58.588Z,7.30
2018-03-12T08:47:26.888Z,7.47
2018-03-12T08:49:55.184Z,8.83
2018-03-12T08:52:23.489Z,9.23
2018-03-12T08:54:51.774Z,8.30
2018-03-12T08:57:20.086Z,7.70
2018-03-12T08:59:49.148Z,8.83
2018-03-12T09:02:17.463Z,9.30
2018-03-12T09:04:45.761Z,9.00
2018-03-12T09:07:14.077Z,9.83
2018-03-12T09:09:42.373Z,9.07
2018-03-12T09:12:10.698Z,9.57
2018-03-12T09:14:39.003Z,10.03
2018-03-12T09:17:07.328Z,10.10
2018-03-12T09:19:36.390Z,10.20
2018-03-12T09:22:04.714Z,7.53
2018-03-12T09:24:33.003Z,7.87
2018-03-12T09:27:01.293Z,8.27
2018-03-12T09:29:29.608Z,6.93
2018-03-12T09:31:57.900Z,7.80
2018-03-12T09:34:26.971Z,6.60
2018-03-12T09:36:55.255Z,5.57
2018-03-12T09:39:23.576Z,5.70
2018-03-12T09:41:51.864Z,5.50
2018-03-12T09:44:20.183Z,5.13
2018-03-12T09:46:48.462Z,5.80
2018-03-12T09:49:16.765Z,5.63
2018-03-12T09:51:45.835Z,4.83
2018-03-12T09:54:14.147Z,4.53
2018-03-12T09:56:42.431Z,5.17
2018-03-12T09:59:10.754Z,4.90
2018-03-12T10:01:39.044Z,6.47
2018-03-12T10:04:07.372Z,4.97
2018-03-12T10:06:35.676Z,4.37
2018-03-12T10:09:04.003Z,4.00
2018-03-12T10:11:32.305Z,3.97
2018-03-12T10:14:00.643Z,3.80
2018-03-12T10:16:29.700Z,3.67
2018-03-12T10:18:58.001Z,4.53
2018-03-12T10:21:26.314Z,3.93
2018-03-12T10:23:54.604Z,3.70
2018-03-12T10:26:22.920Z,3.77
2018-03-12T10:28:51.214Z,3.00
2018-03-12T10:31:19.540Z,3.00
2018-03-12T10:33:47.835Z,2.40
2018-03-12T10:36:16.150Z,3.50
2018-03-12T10:38:44.434Z,2.50
2018-03-12T10:41:13.527Z,3.20
2018-03-12T10:43:41.830Z,2.67
2018-03-12T10:46:10.150Z,2.53
2018-03-12T10:48:38.459Z,2.90
2018-03-12T10:51:07.545Z,3.30
2018-03-12T10:53:35.829Z,3.20
2018-03-12T10:56:04.924Z,3.03
2018-03-12T10:58:33.210Z,3.03
2018-03-12T11:01:02.288Z,2.70
2018-03-12T11:03:32.527Z,2.77
2018-03-12T11:06:03.429Z,2.87
2018-03-12T11:08:31.722Z,3.10
2018-03-12T11:11:00.061Z,3.10
2018-03-12T11:13:28.367Z,3.67
2018-03-12T11:15:56.658Z,3.20
2018-03-12T11:18:24.992Z,3.07
2018-03-12T11:20:53.275Z,2.77
2018-03-12T11:23:21.599Z,2.80
2018-03-12T11:25:50.658Z,3.30
2018-03-12T11:28:18.988Z,3.43
2018-03-12T11:30:48.044Z,3.60
2018-03-12T11:33:16.358Z,3.63
2018-03-12T11:35:45.452Z,3.80
2018-03-12T11:38:14.535Z,4.00
2018-03-12T11:40:43.648Z,3.60
2018-03-12T11:43:12.717Z,3.50
2018-03-12T11:45:41.021Z,3.50
2018-03-12T11:48:09.351Z,3.60
2018-03-12T11:50:37.675Z,2.67
2018-03-12T11:53:06.759Z,3.20
2018-03-12T11:55:35.060Z,3.60
2018-03-12T11:58:03.408Z,3.27
2018-03-12T12:00:31.693Z,2.00
2018-03-12T12:03:00.761Z,2.47
2018-03-12T12:05:29.085Z,3.17
2018-03-12T12:07:57.385Z,2.77
2018-03-12T12:10:25.703Z,2.20
2018-03-12T12:12:54.000Z,2.30
2018-03-12T12:15:23.083Z,2.70
2018-03-12T12:17:51.383Z,2.20
2018-03-12T12:20:19.709Z,2.10
2018-03-12T12:22:48.008Z,2.23
2018-03-12T12:25:16.332Z,1.70
2018-03-12T12:27:44.632Z,2.30
2018-03-12T12:30:12.962Z,2.13
2018-03-12T12:32:42.025Z,1.57
2018-03-12T12:35:10.336Z,1.30
2018-03-12T12:37:39.386Z,1.87
2018-03-12T12:40:07.710Z,1.60
2018-03-12T12:42:36.817Z,1.20
2018-03-12T12:45:05.875Z,1.50
2018-03-12T12:47:34.191Z,1.33
2018-03-12T12:50:02.510Z,1.27
2018-03-12T12:52:30.812Z,1.30
2018-03-12T12:54:59.132Z,1.27
2018-03-12T12:57:27.457Z,1.40
2018-03-12T12:59:55.764Z,1.43
2018-03-12T13:02:24.819Z,1.33
2018-03-12T13:04:53.143Z,1.40
2018-03-12T13:07:21.438Z,1.23
2018-03-12T13:09:49.781Z,1.30
2018-03-12T13:12:18.066Z,2.20
2018-03-12T13:14:47.122Z,2.57
2018-03-12T13:17:15.482Z,2.33
2018-03-12T13:19:43.779Z,1.50
2018-03-12T13:22:12.112Z,1.50
2018-03-12T13:24:40.402Z,1.73
2018-03-12T13:27:08.719Z,1.57
2018-03-12T13:29:37.014Z,1.30
2018-03-12T13:32:06.100Z,1.63
2018-03-12T13:34:34.387Z,1.87
2018-03-12T13:37:02.697Z,1.93
2018-03-12T13:39:31.003Z,1.50
2018-03-12T13:41:59.315Z,2.00
2018-03-12T13:44:28.383Z,1.37
2018-03-12T13:46:56.746Z,1.77
2018-03-12T13:49:25.020Z,1.73
2018-03-12T13:51:53.339Z,1.20
2018-03-12T13:54:21.626Z,2.33
2018-03-12T13:56:50.719Z,1.80
2018-03-12T13:59:19.032Z,1.70
2018-03-12T14:01:47.343Z,1.67
2018-03-12T14:04:15.640Z,1.50
2018-03-12T14:06:43.950Z,1.50
2018-03-12T14:09:13.106Z,2.00
2018-03-12T14:11:41.426Z,1.70
2018-03-12T14:14:09.725Z,1.83
2018-03-12T14:16:38.036Z,1.67
2018-03-12T14:19:06.376Z,2.10
2018-03-12T14:21:34.663Z,1.07
2018-03-12T14:24:02.989Z,1.03
2018-03-12T14:26:31.292Z,1.07
2018-03-12T14:28:59.603Z,1.00
2018-03-12T14:31:27.894Z,1.10
2018-03-12T14:33:56.199Z,0.90
2018-03-12T14:36:25.267Z,1.30
2018-03-12T14:38:53.579Z,1.07
2018-03-12T14:41:22.648Z,1.20
2018-03-12T14:43:50.958Z,1.10
2018-03-12T14:46:20.024Z,1.00
2018-03-12T14:48:48.335Z,0.87
2018-03-12T14:51:17.399Z,1.90
2018-03-12T14:53:45.706Z,3.10
2018-03-12T14:56:14.782Z,1.73
2018-03-12T14:58:43.071Z,3.67
2018-03-12T15:01:12.205Z,1.30
2018-03-12T15:03:41.239Z,10.10
2018-03-12T15:06:09.572Z,5.47
2018-03-12T15:08:37.885Z,13.17
2018-03-12T15:11:06.208Z,9.93
2018-03-12T15:13:34.525Z,1.00
2018-03-12T15:16:02.833Z,1.20
2018-03-12T15:18:31.135Z,1.13
2018-03-12T15:21:00.226Z,0.83
2018-03-12T15:23:29.289Z,1.20
2018-03-12T15:25:57.599Z,1.10
2018-03-12T15:28:25.962Z,1.10
2018-03-12T15:30:54.235Z,1.23
2018-03-12T15:33:23.348Z,0.90
2018-03-12T15:35:51.650Z,1.20
2018-03-12T15:38:19.950Z,1.60
2018-03-12T15:40:48.276Z,2.00
2018-03-12T15:43:17.340Z,2.23
2018-03-12T15:45:45.664Z,3.03
2018-03-12T15:48:13.988Z,1.77
2018-03-12T15:50:42.287Z,5.13
2018-03-12T15:53:10.603Z,3.50
2018-03-12T15:55:38.920Z,3.27
2018-03-12T15:58:07.242Z,1.00
2018-03-12T16:00:36.298Z,1.10
2018-03-12T16:03:04.622Z,1.10
2018-03-12T16:05:32.943Z,1.70
2018-03-12T16:08:01.379Z,1.40
2018-03-12T16:10:30.449Z,1.10
2018-03-12T16:12:58.754Z,1.47
2018-03-12T16:15:27.053Z,1.40
2018-03-12T16:17:55.370Z,1.80
2018-03-12T16:20:23.671Z,1.13
2018-03-12T16:22:52.756Z,1.00
2018-03-12T16:25:21.091Z,2.10
2018-03-12T16:27:49.399Z,1.70
2018-03-12T16:30:17.707Z,1.27
2018-03-12T16:32:46.799Z,1.00
2018-03-12T16:35:15.858Z,1.43
2018-03-12T16:37:44.157Z,1.10
2018-03-12T16:40:12.479Z,1.70
2018-03-12T16:42:40.782Z,1.77
2018-03-12T16:45:09.082Z,1.37
2018-03-12T16:47:37.374Z,1.50
2018-03-12T16:50:06.466Z,2.00
2018-03-12T16:52:34.761Z,1.60
2018-03-12T16:55:03.875Z,1.70
2018-03-12T16:57:32.166Z,1.27
2018-03-12T17:00:00.475Z,1.27
2018-03-12T17:02:28.766Z,1.23
2018-03-12T17:04:57.088Z,1.10
2018-03-12T17:07:25.379Z,1.17
2018-03-12T17:09:53.708Z,1.40
2018-03-12T17:12:22.772Z,1.20
2018-03-12T17:14:51.077Z,1.00
2018-03-12T17:17:20.134Z,0.90
2018-03-12T17:19:49.212Z,1.10
2018-03-12T17:22:17.511Z,1.23
2018-03-12T17:24:45.827Z,1.10
2018-03-12T17:27:14.884Z,1.30
2018-03-12T17:29:43.224Z,1.67
2018-03-12T17:32:11.516Z,3.50
2018-03-12T17:34:39.831Z,2.30
2018-03-12T17:37:08.131Z,1.97
2018-03-12T17:39:36.463Z,3.17
2018-03-12T17:42:04.756Z,1.73
2018-03-12T17:44:33.069Z,1.13
2018-03-12T17:47:01.370Z,1.70
2018-03-12T17:49:29.678Z,1.70
2018-03-12T17:51:57.975Z,9.83
2018-03-12T17:54:26.322Z,13.67
2018-03-12T17:56:54.624Z,11.53
2018-03-12T17:59:22.918Z,11.30
2018-03-12T18:01:52.004Z,2.80
2018-03-12T18:04:20.308Z,2.00
2018-03-12T18:06:49.382Z,3.00
2018-03-12T18:09:17.680Z,5.47
2018-03-12T18:11:46.768Z,4.50
2018-03-12T18:14:15.836Z,6.83
2018-03-12T18:16:44.146Z,3.10
2018-03-12T18:19:13.232Z,1.80
2018-03-12T18:21:41.540Z,1.73
2018-03-12T18:24:09.842Z,1.60
2018-03-12T18:26:38.161Z,1.57
2018-03-12T18:29:06.443Z,1.30
2018-03-12T18:31:35.515Z,1.33
2018-03-12T18:34:03.801Z,1.20
2018-03-12T18:36:32.110Z,1.80
2018-03-12T18:39:00.399Z,1.97
2018-03-12T18:41:28.714Z,1.97
2018-03-12T18:43:57.002Z,2.03
2018-03-12T18:46:25.302Z,2.80
2018-03-12T18:48:54.368Z,1.60
2018-03-12T18:51:22.690Z,2.07
2018-03-12T18:53:50.990Z,1.73
2018-03-12T18:56:19.308Z,1.70
2018-03-12T18:58:47.606Z,1.93
2018-03-12T19:01:16.662Z,2.20
2018-03-12T19:03:44.990Z,1.77
2018-03-12T19:06:14.045Z,1.40
2018-03-12T19:08:42.355Z,1.77
2018-03-12T19:11:11.428Z,2.13
2018-03-12T19:13:39.751Z,2.40
2018-03-12T19:16:08.072Z,3.20
2018-03-12T19:18:36.388Z,2.47
2018-03-12T19:21:05.460Z,2.17
2018-03-12T19:23:33.778Z,2.00
2018-03-12T19:26:02.053Z,2.00
2018-03-12T19:28:30.380Z,2.00
2018-03-12T19:30:58.687Z,2.23
2018-03-12T19:33:27.768Z,2.30
2018-03-12T19:35:56.061Z,1.73
2018-03-12T19:38:25.299Z,1.20
2018-03-12T19:40:53.639Z,1.30
2018-03-12T19:43:22.719Z,1.97
2018-03-12T19:45:51.022Z,1.23
2018-03-12T19:48:20.105Z,1.43
2018-03-12T19:50:49.166Z,1.60
2018-03-12T19:53:17.500Z,1.90
2018-03-12T19:55:45.792Z,2.00
2018-03-12T19:58:14.074Z,1.33
2018-03-12T20:00:42.400Z,1.87
2018-03-12T20:03:10.693Z,1.93
2018-03-12T20:05:39.759Z,1.60
2018-03-12T20:08:11.643Z,1.50
2018-03-12T20:10:40.727Z,1.33
2018-03-12T20:13:16.189Z,2.53
2018-03-12T20:15:47.251Z,1.37
2018-03-12T20:18:15.544Z,1.77
2018-03-12T20:20:43.855Z,1.40
2018-03-12T20:23:12.147Z,1.83
2018-03-12T20:25:40.489Z,1.60
2018-03-12T20:28:08.787Z,1.20
2018-03-12T20:30:37.096Z,1.80
2018-03-12T20:33:06.146Z,1.50
2018-03-12T20:35:34.459Z,1.50
2018-03-12T20:38:03.536Z,2.27
2018-03-12T20:40:31.854Z,1.87
2018-03-12T20:43:00.154Z,1.20
2018-03-12T20:45:28.439Z,1.37
2018-03-12T20:47:56.742Z,1.57
2018-03-12T20:50:25.032Z,1.20
2018-03-12T20:52:53.350Z,2.07
2018-03-12T20:55:21.643Z,1.40
2018-03-12T20:57:49.964Z,1.30
2018-03-12T21:00:18.248Z,1.20
2018-03-12T21:02:47.338Z,1.70
2018-03-12T21:05:15.630Z,1.97
2018-03-12T21:07:44.713Z,2.20
2018-03-12T21:10:13.003Z,1.50
2018-03-12T21:12:42.075Z,1.07
2018-03-12T21:15:10.359Z,1.37
2018-03-12T21:17:38.673Z,1.80
2018-03-12T21:20:07.909Z,1.60
2018-03-12T21:22:36.219Z,1.90
2018-03-12T21:25:05.285Z,1.60
2018-03-12T21:27:33.601Z,1.30
2018-03-12T21:30:02.664Z,1.40
2018-03-12T21:32:32.483Z,1.27
2018-03-12T21:35:00.773Z,1.10
2018-03-12T21:37:29.076Z,1.27
2018-03-12T21:39:57.369Z,1.47
2018-03-12T21:42:25.704Z,1.60
2018-03-12T21:44:54.012Z,1.20
2018-03-12T21:47:22.328Z,1.33
2018-03-12T21:49:50.645Z,1.37
2018-03-12T21:52:19.710Z,2.30
2018-03-12T21:54:48.032Z,1.53
2018-03-12T21:57:17.092Z,1.67
2018-03-12T21:59:45.408Z,1.33
2018-03-12T22:02:13.689Z,1.80
2018-03-12T22:04:42.005Z,1.40
2018-03-12T22:07:10.304Z,1.13
2018-03-12T22:09:39.392Z,1.50
2018-03-12T22:12:07.675Z,1.30
2018-03-12T22:17:37.405Z,1.17
2018-03-12T22:20:05.719Z,2.30
2018-03-12T22:22:34.018Z,1.37
2018-03-12T22:25:02.332Z,1.73
2018-03-12T22:27:30.635Z,1.47
2018-03-12T22:29:59.728Z,1.33
2018-03-12T22:32:28.770Z,1.00
2018-03-12T22:34:57.073Z,1.17
2018-03-12T22:37:25.382Z,1.30
2018-03-12T22:39:54.432Z,1.03
2018-03-12T22:42:22.739Z,1.10
2018-03-12T22:44:51.028Z,1.30
2018-03-12T22:47:20.100Z,1.40
2018-03-12T22:49:48.395Z,1.23
2018-03-12T22:52:17.480Z,0.80
2018-03-12T22:54:45.762Z,1.40
2018-03-12T22:57:14.847Z,1.77
2018-03-12T22:59:43.143Z,1.13
2018-03-12T23:02:12.214Z,1.37
2018-03-12T23:04:40.494Z,1.40
2018-03-12T23:07:08.798Z,1.27
2018-03-12T23:09:37.096Z,0.90
2018-03-12T23:12:05.420Z,1.40
2018-03-12T23:14:33.737Z,1.13
2018-03-12T23:17:02.822Z,1.33
2018-03-12T23:19:31.132Z,1.73
2018-03-12T23:21:59.419Z,1.17
2018-03-12T23:24:27.726Z,1.10
2018-03-12T23:26:56.007Z,1.27
2018-03-12T23:29:24.324Z,1.50
2018-03-12T23:31:52.631Z,1.20
2018-03-12T23:34:20.935Z,1.10
2018-03-12T23:36:49.237Z,1.30
2018-03-12T23:39:18.304Z,1.03
2018-03-12T23:41:46.617Z,1.10
2018-03-12T23:44:15.684Z,1.10
2018-03-12T23:46:43.971Z,1.20
2018-03-12T23:49:12.275Z,0.90
